createdAt,value
2022-10-23T00:00:26.856Z,13.77
2022-10-23T00:01:34.622Z,14.55
2022-10-23T00:02:36.681Z,14.32
2022-10-23T00:03:39.209Z,14.55
2022-10-23T00:04:41.200Z,14.93
2022-10-23T00:05:43.238Z,14.02
2022-10-23T00:06:46.303Z,14.32
2022-10-23T00:07:52.715Z,13.95
2022-10-23T00:08:54.913Z,14.13
2022-10-23T00:09:56.981Z,15.25
2022-10-23T00:10:59.000Z,13.65
2022-10-23T00:12:00.979Z,14.10
2022-10-23T00:13:03.114Z,13.98
2022-10-23T00:14:07.373Z,13.88
2022-10-23T00:15:09.929Z,15.02
2022-10-23T00:16:11.992Z,14.65
2022-10-23T00:17:14.021Z,15.50
2022-10-23T00:18:16.069Z,14.80
2022-10-23T00:19:18.142Z,15.35
2022-10-23T00:20:20.340Z,14.82
2022-10-23T00:21:23.205Z,15.35
2022-10-23T00:22:25.309Z,15.65
2022-10-23T00:23:27.363Z,15.52
2022-10-23T00:24:29.435Z,15.95
2022-10-23T00:25:32.756Z,16.08
2022-10-23T00:26:35.062Z,15.50
2022-10-23T00:27:37.295Z,16.35
2022-10-23T00:28:39.126Z,15.88
2022-10-23T00:29:41.122Z,16.20
2022-10-23T00:30:43.242Z,15.13
2022-10-23T00:31:45.436Z,16.48
2022-10-23T00:32:47.429Z,15.88
2022-10-23T00:33:50.078Z,16.80
2022-10-23T00:34:52.181Z,15.38
2022-10-23T00:35:54.238Z,15.90
2022-10-23T00:36:56.216Z,16.35
2022-10-23T00:37:58.475Z,16.73
2022-10-23T00:39:00.490Z,17.13
2022-10-23T00:40:02.529Z,16.08
2022-10-23T00:41:05.892Z,16.38
2022-10-23T00:42:07.950Z,16.45
2022-10-23T00:43:21.980Z,16.23
2022-10-23T00:44:24.175Z,17.15
2022-10-23T00:45:28.927Z,15.52
2022-10-23T00:46:31.695Z,16.58
2022-10-23T00:47:33.928Z,16.63
2022-10-23T00:48:35.907Z,16.83
2022-10-23T00:49:40.681Z,16.17
2022-10-23T00:50:46.549Z,16.35
2022-10-23T00:51:56.900Z,17.15
2022-10-23T00:53:02.823Z,16.10
2022-10-23T00:55:28.359Z,16.08
2022-10-23T00:56:32.960Z,16.77
2022-10-23T00:57:35.332Z,16.30
2022-10-23T00:58:37.620Z,15.85
2022-10-23T00:59:40.343Z,15.05
2022-10-23T01:00:47.739Z,16.77
2022-10-23T01:01:49.860Z,16.90
2022-10-23T01:02:52.876Z,17.02
2022-10-23T01:03:55.352Z,17.00
2022-10-23T01:04:57.479Z,16.40
2022-10-23T01:06:41.036Z,17.17
2022-10-23T01:08:02.253Z,16.30
2022-10-23T01:09:31.889Z,16.35
2022-10-23T01:10:44.132Z,16.70
2022-10-23T01:12:09.867Z,15.77
2022-10-23T01:13:39.962Z,16.13
2022-10-23T01:15:06.074Z,15.77
2022-10-23T01:16:17.193Z,15.90
2022-10-23T01:17:35.375Z,15.68
2022-10-23T01:18:47.524Z,16.92
2022-10-23T01:19:49.315Z,15.88
2022-10-23T01:21:06.261Z,15.50
2022-10-23T01:23:51.913Z,15.77
2022-10-23T01:25:03.572Z,16.92
2022-10-23T01:26:26.853Z,15.95
2022-10-23T01:27:36.796Z,15.60
2022-10-23T01:28:41.855Z,15.60
2022-10-23T01:29:50.409Z,16.27
2022-10-23T01:30:54.262Z,18.40
2022-10-23T01:33:06.574Z,17.27
2022-10-23T01:34:44.119Z,16.60
2022-10-23T01:36:02.852Z,16.42
2022-10-23T01:37:07.785Z,16.23
2022-10-23T01:38:12.060Z,16.58
2022-10-23T01:39:30.120Z,16.80
2022-10-23T01:40:41.903Z,16.67
2022-10-23T01:41:58.086Z,17.15
2022-10-23T01:43:06.322Z,17.15
2022-10-23T01:44:15.097Z,17.23
2022-10-23T01:45:26.751Z,16.92
2022-10-23T01:46:30.476Z,16.73
2022-10-23T01:47:35.642Z,17.70
2022-10-23T01:48:38.634Z,17.05
2022-10-23T01:49:43.072Z,16.25
2022-10-23T01:50:46.273Z,19.45
2022-10-23T01:51:55.444Z,16.70
2022-10-23T01:52:57.672Z,17.27
2022-10-23T01:54:01.141Z,18.60
2022-10-23T01:55:03.678Z,18.15
2022-10-23T01:56:12.199Z,18.20
2022-10-23T01:57:17.507Z,18.60
2022-10-23T01:58:21.413Z,17.58
2022-10-23T01:59:30.096Z,19.17
2022-10-23T02:00:32.183Z,18.77
2022-10-23T02:01:37.194Z,19.90
2022-10-23T02:02:41.823Z,19.38
2022-10-23T02:03:44.905Z,19.60
2022-10-23T02:05:14.258Z,19.65
2022-10-23T02:06:16.609Z,19.00
2022-10-23T02:07:18.653Z,19.10
2022-10-23T02:08:20.877Z,20.27
2022-10-23T02:09:23.057Z,19.92
2022-10-23T02:10:52.523Z,20.02
2022-10-23T02:12:08.648Z,19.48
2022-10-23T02:13:23.182Z,20.02
2022-10-23T02:14:48.270Z,19.77
2022-10-23T02:16:22.834Z,19.30
2022-10-23T02:17:43.155Z,20.30
2022-10-23T02:18:55.361Z,21.30
2022-10-23T02:20:10.671Z,20.10
2022-10-23T02:21:17.709Z,20.92
2022-10-23T02:22:27.370Z,21.42
2022-10-23T02:23:41.311Z,21.45
2022-10-23T02:24:53.474Z,21.33
2022-10-23T02:26:01.511Z,21.25
2022-10-23T02:31:21.939Z,21.95
2022-10-23T02:32:26.655Z,22.85
2022-10-23T02:33:30.798Z,22.65
2022-10-23T02:34:32.945Z,22.88
2022-10-23T02:35:35.719Z,24.38
2022-10-23T02:36:38.044Z,24.38
2022-10-23T02:37:40.352Z,23.90
2022-10-23T02:38:44.662Z,23.92
2022-10-23T02:39:47.015Z,25.02
2022-10-23T02:40:49.244Z,25.58
2022-10-23T02:42:14.235Z,25.50
2022-10-23T02:43:24.425Z,25.55
2022-10-23T02:44:43.359Z,24.63
2022-10-23T02:45:56.648Z,26.13
2022-10-23T02:47:31.222Z,26.65
2022-10-23T02:48:58.714Z,25.17
2022-10-23T02:50:06.015Z,26.75
2022-10-23T02:51:32.415Z,24.42
2022-10-23T02:52:53.992Z,26.02
2022-10-23T02:55:08.799Z,25.35
2022-10-23T02:56:24.795Z,27.58
2022-10-23T02:57:32.701Z,29.35
2022-10-23T02:58:58.471Z,27.58
2022-10-23T03:00:13.806Z,26.88
2022-10-23T03:01:21.029Z,26.67
2022-10-23T03:02:36.016Z,26.17
2022-10-23T03:03:54.933Z,25.80
2022-10-23T03:04:57.694Z,26.52
2022-10-23T03:06:00.137Z,27.52
2022-10-23T03:07:02.093Z,26.55
2022-10-23T03:08:06.222Z,26.77
2022-10-23T03:09:09.729Z,27.88
2022-10-23T03:10:12.165Z,27.00
2022-10-23T03:11:14.319Z,26.52
2022-10-23T03:12:16.437Z,28.23
2022-10-23T03:13:18.468Z,27.98
2022-10-23T03:14:20.498Z,26.80
2022-10-23T03:15:22.760Z,26.83
2022-10-23T03:16:24.884Z,27.73
2022-10-23T03:17:27.011Z,28.45
2022-10-23T03:18:28.987Z,28.70
2022-10-23T03:19:30.988Z,26.67
2022-10-23T03:20:33.175Z,29.05
2022-10-23T03:21:35.275Z,26.83
2022-10-23T03:22:37.905Z,27.95
2022-10-23T03:23:39.905Z,28.80
2022-10-23T03:24:42.028Z,29.05
2022-10-23T03:25:44.021Z,29.20
2022-10-23T03:26:46.069Z,27.75
2022-10-23T03:27:48.079Z,27.88
2022-10-23T03:28:50.310Z,30.20
2022-10-23T03:29:52.339Z,29.73
2022-10-23T03:30:54.569Z,30.20
2022-10-23T03:31:56.591Z,27.27
2022-10-23T03:32:58.705Z,28.50
2022-10-23T03:34:02.256Z,28.95
2022-10-23T03:35:06.532Z,28.83
2022-10-23T03:36:09.028Z,31.50
2022-10-23T03:37:11.275Z,29.35
2022-10-23T03:38:13.311Z,31.13
2022-10-23T03:39:15.318Z,29.95
2022-10-23T03:40:17.490Z,28.77
2022-10-23T03:41:19.518Z,31.38
2022-10-23T03:42:21.927Z,32.05
2022-10-23T03:43:23.982Z,31.63
2022-10-23T03:44:26.055Z,31.75
2022-10-23T03:45:28.043Z,29.92
2022-10-23T03:46:30.158Z,29.95
2022-10-23T03:47:35.328Z,29.38
2022-10-23T03:48:38.384Z,28.02
2022-10-23T03:49:40.583Z,31.52
2022-10-23T03:50:42.571Z,29.27
2022-10-23T03:51:47.487Z,30.73
2022-10-23T03:52:49.710Z,33.80
2022-10-23T03:53:51.866Z,32.97
2022-10-23T03:54:53.898Z,28.60
2022-10-23T03:55:56.066Z,30.65
2022-10-23T03:56:58.392Z,31.50
2022-10-23T03:58:00.397Z,30.20
2022-10-23T03:59:02.451Z,28.88
2022-10-23T04:00:06.626Z,28.30
2022-10-23T04:01:09.099Z,30.52
2022-10-23T04:02:11.223Z,28.67
2022-10-23T04:03:13.397Z,30.27
2022-10-23T04:04:15.818Z,29.05
2022-10-23T04:05:17.940Z,29.98
2022-10-23T04:06:19.984Z,28.77
2022-10-23T04:07:22.556Z,29.50
2022-10-23T04:08:24.625Z,28.73
2022-10-23T04:09:26.689Z,28.98
2022-10-23T04:10:28.686Z,29.85
2022-10-23T04:11:31.114Z,30.38
2022-10-23T04:12:33.356Z,30.45
2022-10-23T04:13:35.399Z,28.95
2022-10-23T04:14:37.494Z,28.63
2022-10-23T04:15:39.492Z,31.85
2022-10-23T04:16:41.635Z,30.95
2022-10-23T04:17:43.631Z,29.58
2022-10-23T04:18:45.776Z,28.15
2022-10-23T04:19:47.897Z,28.83
2022-10-23T04:20:50.484Z,30.73
2022-10-23T04:21:52.508Z,30.20
2022-10-23T04:22:54.528Z,28.95
2022-10-23T04:23:56.577Z,29.98
2022-10-23T04:24:58.832Z,29.92
2022-10-23T04:26:00.920Z,29.35
2022-10-23T04:27:02.985Z,28.23
2022-10-23T04:28:05.071Z,28.30
2022-10-23T04:29:07.107Z,29.65
2022-10-23T04:30:10.125Z,27.65
2022-10-23T04:31:12.352Z,28.80
2022-10-23T04:32:14.158Z,28.55
2022-10-23T04:33:16.486Z,28.30
2022-10-23T04:34:21.374Z,29.00
2022-10-23T04:35:23.561Z,29.15
2022-10-23T04:36:25.899Z,30.77
2022-10-23T04:37:28.444Z,28.40
2022-10-23T04:38:30.678Z,29.35
2022-10-23T04:39:32.742Z,29.00
2022-10-23T04:40:34.978Z,31.98
2022-10-23T04:41:39.342Z,29.15
2022-10-23T04:42:41.418Z,30.02
2022-10-23T04:43:43.783Z,29.85
2022-10-23T04:44:45.819Z,29.27
2022-10-23T04:45:50.260Z,31.38
2022-10-23T04:46:52.245Z,28.67
2022-10-23T04:47:54.238Z,28.38
2022-10-23T04:48:56.301Z,27.90
2022-10-23T04:49:58.528Z,27.35
2022-10-23T04:51:02.904Z,28.23
2022-10-23T04:52:04.958Z,26.48
2022-10-23T04:53:06.954Z,27.02
2022-10-23T04:54:09.772Z,29.33
2022-10-23T04:55:11.789Z,28.20
2022-10-23T04:56:15.696Z,28.17
2022-10-23T04:57:17.937Z,27.80
2022-10-23T04:58:20.875Z,28.85
2022-10-23T04:59:22.956Z,28.33
2022-10-23T05:00:24.956Z,28.08
2022-10-23T05:01:27.296Z,26.88
2022-10-23T05:02:29.459Z,27.55
2022-10-23T05:03:31.671Z,28.15
2022-10-23T05:04:33.709Z,27.95
2022-10-23T05:05:35.708Z,29.98
2022-10-23T05:06:37.746Z,28.58
2022-10-23T05:07:39.912Z,26.30
2022-10-23T05:08:44.837Z,26.95
2022-10-23T05:09:46.827Z,27.90
2022-10-23T05:10:50.323Z,27.83
2022-10-23T05:11:52.617Z,26.83
2022-10-23T05:12:54.713Z,28.50
2022-10-23T05:13:56.781Z,27.52
2022-10-23T05:14:59.207Z,25.35
2022-10-23T05:16:01.325Z,25.63
2022-10-23T05:17:21.423Z,26.65
2022-10-23T05:18:32.154Z,27.08
2022-10-23T05:19:40.960Z,29.58
2022-10-23T05:20:44.874Z,30.52
2022-10-23T05:21:49.294Z,26.02
2022-10-23T05:22:55.014Z,27.05
2022-10-23T05:23:57.798Z,28.00
2022-10-23T05:25:02.218Z,29.00
2022-10-23T05:26:05.191Z,26.65
2022-10-23T05:27:07.182Z,27.90
2022-10-23T05:28:09.360Z,26.92
2022-10-23T05:29:11.334Z,27.23
2022-10-23T05:30:13.676Z,27.00
2022-10-23T05:31:16.506Z,28.42
2022-10-23T05:32:18.781Z,28.20
2022-10-23T05:33:20.953Z,28.40
2022-10-23T05:34:25.834Z,28.85
2022-10-23T05:35:29.775Z,27.67
2022-10-23T05:36:31.980Z,27.52
2022-10-23T05:37:34.328Z,28.10
2022-10-23T05:38:36.699Z,28.02
2022-10-23T05:39:39.134Z,29.98
2022-10-23T05:40:41.192Z,28.10
2022-10-23T05:41:43.229Z,27.48
2022-10-23T05:42:45.417Z,27.73
2022-10-23T05:43:47.788Z,28.52
2022-10-23T05:44:49.605Z,28.55
2022-10-23T05:45:51.817Z,28.50
2022-10-23T05:46:53.653Z,30.60
2022-10-23T05:48:05.681Z,30.40
2022-10-23T05:49:13.466Z,29.30
2022-10-23T05:50:15.725Z,28.20
2022-10-23T05:51:22.331Z,28.05
2022-10-23T05:52:24.565Z,28.15
2022-10-23T05:53:26.772Z,28.20
2022-10-23T05:54:29.073Z,29.60
2022-10-23T05:55:31.132Z,29.63
2022-10-23T05:56:33.157Z,30.25
2022-10-23T05:57:35.479Z,31.33
2022-10-23T05:58:37.587Z,29.88
2022-10-23T05:59:39.799Z,28.00
2022-10-23T06:00:41.781Z,28.30
2022-10-23T06:01:44.072Z,29.83
2022-10-23T06:02:46.169Z,30.58
2022-10-23T06:03:48.200Z,30.90
2022-10-23T06:04:50.277Z,29.50
2022-10-23T06:05:53.003Z,29.35
2022-10-23T06:06:55.066Z,31.27
2022-10-23T06:08:00.431Z,30.42
2022-10-23T06:09:03.039Z,28.20
2022-10-23T06:10:06.795Z,28.65
2022-10-23T06:11:11.211Z,29.45
2022-10-23T06:12:13.248Z,29.25
2022-10-23T06:13:15.232Z,28.27
2022-10-23T06:14:17.386Z,28.00
2022-10-23T06:15:19.505Z,27.77
2022-10-23T06:16:25.760Z,29.02
2022-10-23T06:17:28.817Z,27.52
2022-10-23T06:18:30.847Z,26.60
2022-10-23T06:19:32.989Z,28.25
2022-10-23T06:20:41.267Z,27.35
2022-10-23T06:21:43.359Z,27.45
2022-10-23T06:22:45.666Z,27.08
2022-10-23T06:23:48.291Z,27.00
2022-10-23T06:24:50.329Z,26.10
2022-10-23T06:25:55.104Z,26.48
2022-10-23T06:26:57.145Z,27.63
2022-10-23T06:27:59.346Z,28.63
2022-10-23T06:29:01.677Z,29.75
2022-10-23T06:30:04.308Z,27.75
2022-10-23T06:31:08.164Z,28.70
2022-10-23T06:32:10.600Z,27.50
2022-10-23T06:33:12.644Z,28.35
2022-10-23T06:34:15.441Z,28.10
2022-10-23T06:35:17.572Z,27.63
2022-10-23T06:36:19.671Z,26.85
2022-10-23T06:37:21.723Z,28.20
2022-10-23T06:38:24.041Z,27.17
2022-10-23T06:39:29.744Z,26.90
2022-10-23T06:40:34.029Z,27.02
2022-10-23T06:41:36.194Z,26.67
2022-10-23T06:42:38.215Z,25.95
2022-10-23T06:43:40.312Z,26.02
2022-10-23T06:44:42.306Z,26.88
2022-10-23T06:45:44.287Z,25.02
2022-10-23T06:46:47.537Z,24.88
2022-10-23T06:47:53.132Z,25.65
2022-10-23T06:48:55.133Z,25.63
2022-10-23T06:49:57.196Z,25.77
2022-10-23T06:51:00.154Z,23.80
2022-10-23T06:52:02.208Z,23.95
2022-10-23T06:53:05.627Z,24.75
2022-10-23T06:54:07.974Z,25.00
2022-10-23T06:55:10.169Z,23.92
2022-10-23T06:56:12.385Z,24.60
2022-10-23T06:57:14.203Z,27.42
2022-10-23T06:58:16.203Z,27.10
2022-10-23T06:59:19.967Z,23.42
2022-10-23T07:00:21.997Z,23.67
2022-10-23T07:01:24.124Z,26.73
2022-10-23T07:02:26.229Z,26.55
2022-10-23T07:03:28.576Z,22.83
2022-10-23T07:04:30.867Z,23.77
2022-10-23T07:05:33.272Z,25.55
2022-10-23T07:06:35.524Z,24.35
2022-10-23T07:07:37.894Z,21.23
2022-10-23T07:08:40.003Z,23.40
2022-10-23T07:09:42.381Z,20.02
2022-10-23T07:10:44.787Z,22.95
2022-10-23T07:11:46.780Z,22.63
2022-10-23T07:12:49.023Z,23.67
2022-10-23T07:13:51.080Z,21.98
2022-10-23T07:14:53.122Z,24.95
2022-10-23T07:15:54.968Z,24.83
2022-10-23T07:16:57.969Z,24.92
2022-10-23T07:18:00.008Z,23.13
2022-10-23T07:19:01.970Z,25.63
2022-10-23T07:20:04.635Z,25.48
2022-10-23T07:21:07.164Z,26.67
2022-10-23T07:22:10.836Z,26.70
2022-10-23T07:23:16.603Z,25.27
2022-10-23T07:24:18.862Z,24.65
2022-10-23T07:25:22.543Z,24.92
2022-10-23T07:26:25.010Z,25.13
2022-10-23T07:27:27.373Z,25.08
2022-10-23T07:28:29.520Z,25.90
2022-10-23T07:29:31.959Z,26.27
2022-10-23T07:30:33.860Z,25.33
2022-10-23T07:31:35.886Z,30.38
2022-10-23T07:33:04.952Z,26.45
2022-10-23T07:34:07.470Z,27.85
2022-10-23T07:35:12.333Z,27.88
2022-10-23T07:36:15.638Z,28.98
2022-10-23T07:37:17.744Z,27.90
2022-10-23T07:38:28.409Z,30.75
2022-10-23T07:39:30.595Z,32.17
2022-10-23T07:40:32.681Z,31.27
2022-10-23T07:41:35.015Z,25.15
2022-10-23T07:42:39.216Z,26.25
2022-10-23T07:43:41.428Z,26.98
2022-10-23T07:44:43.835Z,26.13
2022-10-23T07:45:49.513Z,25.77
2022-10-23T07:46:51.972Z,24.45
2022-10-23T07:47:53.834Z,25.63
2022-10-23T07:48:56.175Z,26.05
2022-10-23T07:49:58.477Z,26.10
2022-10-23T07:51:03.534Z,23.38
2022-10-23T07:52:06.635Z,22.73
2022-10-23T07:53:17.142Z,22.05
2022-10-23T07:54:19.443Z,23.55
2022-10-23T07:55:21.556Z,21.80
2022-10-23T07:56:30.415Z,23.05
2022-10-23T07:57:32.512Z,22.58
2022-10-23T07:58:34.621Z,22.08
2022-10-23T07:59:38.035Z,21.92
2022-10-23T08:00:41.731Z,21.42
2022-10-23T08:01:44.299Z,22.02
2022-10-23T08:02:46.502Z,22.67
2022-10-23T08:03:49.120Z,22.15
2022-10-23T08:04:51.371Z,24.50
2022-10-23T08:05:54.614Z,23.38
2022-10-23T08:06:56.461Z,22.65
2022-10-23T08:07:58.504Z,21.17
2022-10-23T08:09:03.746Z,20.15
2022-10-23T08:10:08.888Z,20.85
2022-10-23T08:11:14.169Z,21.23
2022-10-23T08:12:16.417Z,22.45
2022-10-23T08:13:20.609Z,19.73
2022-10-23T08:14:22.850Z,20.65
2022-10-23T08:15:24.902Z,19.63
2022-10-23T08:16:27.555Z,19.48
2022-10-23T08:17:29.672Z,18.50
2022-10-23T08:18:31.780Z,18.23
2022-10-23T08:19:33.898Z,18.35
2022-10-23T08:20:40.238Z,17.35
2022-10-23T08:21:42.281Z,14.80
2022-10-23T08:22:44.346Z,14.77
2022-10-23T08:23:46.514Z,14.25
2022-10-23T08:24:48.320Z,12.95
2022-10-23T08:25:56.706Z,13.40
2022-10-23T08:26:59.653Z,11.73
2022-10-23T08:28:05.535Z,11.50
2022-10-23T08:29:08.529Z,10.40
2022-10-23T08:30:11.548Z,10.02
2022-10-23T08:31:16.672Z,9.70
2022-10-23T08:32:18.747Z,9.63
2022-10-23T08:33:21.183Z,7.90
2022-10-23T08:34:24.138Z,9.15
2022-10-23T08:35:26.184Z,8.38
2022-10-23T08:36:30.108Z,7.68
2022-10-23T08:37:32.696Z,7.47
2022-10-23T08:38:35.655Z,6.70
2022-10-23T08:39:37.778Z,5.30
2022-10-23T08:40:44.909Z,5.70
2022-10-23T08:41:52.280Z,6.03
2022-10-23T08:43:06.254Z,6.03
2022-10-23T08:44:14.279Z,5.80
2022-10-23T08:45:32.520Z,4.68
2022-10-23T08:46:41.976Z,4.10
2022-10-23T08:47:51.482Z,4.45
2022-10-23T08:49:05.932Z,4.05
2022-10-23T08:50:25.909Z,4.53
2022-10-23T08:51:36.221Z,4.55
2022-10-23T08:53:13.039Z,4.43
2022-10-23T08:54:19.553Z,4.05
2022-10-23T08:55:43.843Z,4.25
2022-10-23T08:56:53.086Z,3.63
2022-10-23T08:58:18.430Z,3.70
2022-10-23T08:59:46.643Z,4.05
2022-10-23T09:00:50.618Z,3.83
2022-10-23T09:02:16.682Z,3.53
2022-10-23T09:03:18.932Z,3.30
2022-10-23T09:04:21.052Z,3.15
2022-10-23T09:05:44.660Z,3.42
2022-10-23T09:06:49.234Z,3.25
2022-10-23T09:08:09.950Z,3.00
2022-10-23T09:09:55.485Z,3.10
2022-10-23T09:11:05.406Z,3.05
2022-10-23T09:12:17.884Z,3.25
2022-10-23T09:13:39.046Z,3.72
2022-10-23T09:15:08.486Z,3.20
2022-10-23T09:16:34.079Z,2.72
2022-10-23T09:17:39.547Z,3.10
2022-10-23T09:18:42.792Z,3.00
2022-10-23T09:19:46.148Z,3.20
2022-10-23T09:20:48.664Z,2.80
2022-10-23T09:21:50.919Z,2.63
2022-10-23T09:22:59.787Z,2.65
2022-10-23T09:24:01.665Z,2.97
2022-10-23T09:25:04.110Z,3.22
2022-10-23T09:26:15.997Z,3.30
2022-10-23T09:27:18.400Z,2.95
2022-10-23T09:28:31.103Z,3.58
2022-10-23T09:29:36.481Z,4.10
2022-10-23T09:30:43.239Z,2.83
2022-10-23T09:31:50.080Z,3.30
2022-10-23T09:32:52.195Z,3.33
2022-10-23T09:33:59.949Z,4.63
2022-10-23T09:35:02.217Z,3.58
2022-10-23T09:36:05.954Z,2.80
2022-10-23T09:37:45.679Z,3.72
2022-10-23T09:38:52.258Z,2.83
2022-10-23T09:40:16.898Z,2.67
2022-10-23T09:41:34.961Z,2.60
2022-10-23T09:42:37.002Z,2.92
2022-10-23T09:43:39.087Z,2.50
2022-10-23T09:44:50.438Z,8.07
2022-10-23T09:46:01.255Z,3.72
2022-10-23T09:47:06.224Z,3.22
2022-10-23T09:48:18.526Z,3.03
2022-10-23T09:49:26.612Z,2.97
2022-10-23T09:50:28.938Z,3.30
2022-10-23T09:51:31.060Z,3.05
2022-10-23T09:52:37.649Z,3.17
2022-10-23T09:53:48.802Z,2.75
2022-10-23T09:55:02.457Z,3.10
2022-10-23T09:56:24.536Z,3.13
2022-10-23T09:57:42.053Z,2.92
2022-10-23T09:58:59.050Z,3.28
2022-10-23T10:00:25.442Z,3.63
2022-10-23T10:01:55.229Z,2.67
2022-10-23T10:03:03.341Z,3.38
2022-10-23T10:04:05.791Z,3.05
2022-10-23T10:05:27.293Z,3.38
2022-10-23T10:06:34.362Z,3.00
2022-10-23T10:07:38.922Z,3.10
2022-10-23T10:08:49.332Z,3.30
2022-10-23T10:09:54.152Z,3.17
2022-10-23T10:11:05.370Z,3.30
2022-10-23T10:13:33.756Z,3.08
2022-10-23T10:15:02.985Z,3.05
2022-10-23T10:16:20.473Z,3.00
2022-10-23T10:17:37.987Z,3.40
2022-10-23T10:18:57.048Z,3.05
2022-10-23T10:20:15.542Z,3.20
2022-10-23T10:22:01.131Z,3.70
2022-10-23T10:23:10.719Z,3.58
2022-10-23T10:24:21.449Z,3.28
2022-10-23T10:25:34.365Z,3.25
2022-10-23T10:26:52.762Z,3.00
2022-10-23T10:28:27.194Z,3.50
2022-10-23T10:29:58.681Z,2.90
2022-10-23T10:31:34.234Z,2.85
2022-10-23T10:33:02.334Z,2.70
2022-10-23T10:34:18.861Z,2.80
2022-10-23T10:35:39.647Z,2.60
2022-10-23T10:36:51.190Z,2.90
2022-10-23T10:38:17.025Z,2.25
2022-10-23T10:39:22.191Z,2.50
2022-10-23T10:40:35.626Z,2.35
2022-10-23T10:41:49.137Z,2.53
2022-10-23T10:43:17.321Z,2.25
2022-10-23T10:44:45.182Z,2.22
2022-10-23T10:46:10.046Z,2.25
2022-10-23T10:47:27.610Z,2.63
2022-10-23T10:48:59.951Z,2.33
2022-10-23T10:50:23.569Z,2.63
2022-10-23T10:52:03.422Z,3.97
2022-10-23T10:53:24.276Z,3.10
2022-10-23T10:54:51.899Z,2.22
2022-10-23T10:56:00.001Z,2.95
2022-10-23T10:57:09.377Z,2.83
2022-10-23T10:58:40.584Z,3.00
2022-10-23T10:59:46.876Z,2.72
2022-10-23T11:00:53.596Z,3.08
2022-10-23T11:02:21.332Z,2.80
2022-10-23T11:03:42.980Z,3.35
2022-10-23T11:04:52.307Z,3.10
2022-10-23T11:07:10.752Z,3.20
2022-10-23T11:08:36.837Z,3.20
2022-10-23T11:09:47.150Z,3.25
2022-10-23T11:10:53.609Z,3.40
2022-10-23T11:11:59.356Z,3.10
2022-10-23T11:13:01.900Z,3.08
2022-10-23T11:14:04.528Z,3.28
2022-10-23T11:15:16.905Z,3.58
2022-10-23T11:16:27.964Z,3.30
2022-10-23T11:17:40.860Z,3.58
2022-10-23T11:18:46.737Z,3.40
2022-10-23T11:20:00.589Z,3.20
2022-10-23T11:21:08.511Z,3.78
2022-10-23T11:22:28.338Z,3.38
2022-10-23T11:23:56.131Z,3.53
2022-10-23T11:25:20.167Z,3.80
2022-10-23T11:26:22.658Z,4.10
2022-10-23T11:27:42.086Z,4.72
2022-10-23T11:29:09.577Z,4.72
2022-10-23T11:30:20.529Z,6.32
2022-10-23T11:32:00.482Z,6.05
2022-10-23T11:33:14.670Z,7.20
2022-10-23T11:34:57.438Z,7.53
2022-10-23T11:36:11.414Z,6.45
2022-10-23T11:37:32.164Z,7.78
2022-10-23T11:38:37.920Z,7.38
2022-10-23T11:39:40.332Z,6.30
2022-10-23T11:41:00.473Z,6.38
2022-10-23T11:42:09.665Z,5.65
2022-10-23T11:43:31.842Z,4.38
2022-10-23T11:44:50.046Z,3.03
2022-10-23T11:46:06.517Z,3.28
2022-10-23T11:47:31.981Z,3.20
2022-10-23T11:48:44.732Z,3.00
2022-10-23T11:51:44.439Z,3.55
2022-10-23T11:53:14.956Z,3.08
2022-10-23T11:54:17.697Z,3.22
2022-10-23T11:55:32.399Z,3.63
2022-10-23T11:56:51.378Z,3.75
2022-10-23T11:58:02.888Z,3.63
2022-10-23T11:59:34.042Z,3.70
2022-10-23T12:00:51.172Z,3.05
2022-10-23T12:01:59.722Z,3.33
2022-10-23T12:03:02.724Z,3.20
2022-10-23T12:04:15.959Z,3.83
2022-10-23T12:05:32.921Z,4.03
2022-10-23T12:07:00.910Z,3.17
2022-10-23T12:08:05.975Z,2.85
2022-10-23T12:09:36.507Z,2.80
2022-10-23T12:10:47.644Z,3.00
2022-10-23T12:12:03.334Z,2.63
2022-10-23T12:13:26.286Z,2.60
2022-10-23T12:14:34.364Z,2.90
2022-10-23T12:15:36.546Z,2.80
2022-10-23T12:16:38.717Z,2.88
2022-10-23T12:17:42.660Z,2.22
2022-10-23T12:18:53.881Z,2.22
2022-10-23T12:20:09.717Z,2.40
2022-10-23T12:21:21.601Z,2.25
2022-10-23T12:23:57.795Z,2.45
2022-10-23T12:25:42.259Z,2.70
2022-10-23T12:27:01.446Z,2.60
2022-10-23T12:28:30.793Z,2.20
2022-10-23T12:29:46.462Z,2.60
2022-10-23T12:30:57.992Z,2.60
2022-10-23T12:32:14.890Z,2.33
2022-10-23T12:33:35.372Z,2.40
2022-10-23T12:35:04.799Z,2.25
2022-10-23T12:36:25.281Z,2.10
2022-10-23T12:37:55.351Z,3.10
2022-10-23T12:38:59.147Z,2.40
2022-10-23T12:40:02.179Z,2.58
2022-10-23T12:42:58.617Z,2.50
2022-10-23T12:44:04.459Z,2.70
2022-10-23T12:45:20.666Z,2.35
2022-10-23T12:46:35.783Z,2.45
2022-10-23T12:48:51.847Z,2.63
2022-10-23T12:49:54.469Z,2.30
2022-10-23T12:50:56.977Z,2.40
2022-10-23T12:52:00.764Z,2.25
2022-10-23T12:53:07.525Z,2.38
2022-10-23T12:54:21.138Z,3.00
2022-10-23T12:55:24.845Z,2.92
2022-10-23T12:56:30.556Z,2.50
2022-10-23T12:57:45.051Z,2.60
2022-10-23T12:58:58.601Z,2.63
2022-10-23T13:00:08.722Z,2.25
2022-10-23T13:01:26.515Z,2.60
2022-10-23T13:02:31.486Z,3.05
2022-10-23T13:03:36.014Z,2.42
2022-10-23T13:04:41.440Z,2.70
2022-10-23T13:05:43.928Z,2.47
2022-10-23T13:06:47.783Z,2.53
2022-10-23T13:07:52.412Z,2.35
2022-10-23T13:08:56.439Z,2.40
2022-10-23T13:10:02.113Z,2.28
2022-10-23T13:11:05.662Z,2.30
2022-10-23T13:12:16.616Z,2.60
2022-10-23T13:13:25.254Z,3.45
2022-10-23T13:15:14.623Z,2.97
2022-10-23T13:16:21.130Z,2.50
2022-10-23T13:17:42.252Z,2.17
2022-10-23T13:18:45.399Z,3.10
2022-10-23T13:19:48.389Z,2.45
2022-10-23T13:20:54.364Z,2.58
2022-10-23T13:21:59.034Z,2.75
2022-10-23T13:23:17.051Z,2.70
2022-10-23T13:24:25.273Z,3.47
2022-10-23T13:25:32.921Z,2.60
2022-10-23T13:26:47.437Z,2.33
2022-10-23T13:27:49.948Z,2.53
2022-10-23T13:28:52.838Z,2.78
2022-10-23T13:29:54.919Z,3.30
2022-10-23T13:31:07.275Z,3.25
2022-10-23T13:32:13.374Z,2.60
2022-10-23T13:33:33.880Z,2.20
2022-10-23T13:34:36.229Z,2.22
2022-10-23T13:35:38.266Z,2.75
2022-10-23T13:36:53.659Z,2.55
2022-10-23T13:37:55.940Z,2.83
2022-10-23T13:39:10.425Z,2.70
2022-10-23T13:40:38.540Z,2.60
2022-10-23T13:41:42.958Z,2.35
2022-10-23T13:42:45.474Z,2.67
2022-10-23T13:43:48.393Z,3.15
2022-10-23T13:44:50.729Z,2.50
2022-10-23T13:45:53.141Z,2.40
2022-10-23T13:47:05.642Z,2.95
2022-10-23T13:48:15.086Z,2.70
2022-10-23T13:49:17.304Z,2.92
2022-10-23T13:50:20.207Z,3.28
2022-10-23T13:51:23.854Z,3.10
2022-10-23T13:52:25.975Z,3.10
2022-10-23T13:53:28.093Z,3.30
2022-10-23T13:54:30.962Z,3.10
2022-10-23T13:55:33.938Z,3.47
2022-10-23T13:56:36.050Z,3.45
2022-10-23T13:57:38.310Z,3.92
2022-10-23T13:58:40.677Z,2.97
2022-10-23T13:59:43.319Z,3.63
2022-10-23T14:00:48.165Z,3.80
2022-10-23T14:01:51.198Z,4.15
2022-10-23T14:03:56.540Z,3.90
2022-10-23T14:04:58.613Z,4.00
2022-10-23T14:06:01.627Z,4.47
2022-10-23T14:07:03.687Z,3.90
2022-10-23T14:08:05.703Z,3.80
2022-10-23T14:09:10.501Z,3.53
2022-10-23T14:10:12.571Z,3.90
2022-10-23T14:11:16.670Z,4.03
2022-10-23T14:12:18.771Z,4.32
2022-10-23T14:13:20.870Z,5.28
2022-10-23T14:14:24.633Z,5.40
2022-10-23T14:15:29.877Z,5.32
2022-10-23T14:16:31.983Z,5.63
2022-10-23T14:17:35.565Z,6.78
2022-10-23T14:18:37.700Z,6.68
2022-10-23T14:19:39.830Z,6.53
2022-10-23T14:20:41.919Z,6.80
2022-10-23T14:21:44.034Z,7.10
2022-10-23T14:22:46.508Z,7.47
2022-10-23T14:23:50.463Z,6.97
2022-10-23T14:24:52.516Z,7.30
2022-10-23T14:25:54.746Z,8.73
2022-10-23T14:26:57.841Z,7.25
2022-10-23T14:27:59.961Z,6.00
2022-10-23T14:29:06.516Z,6.38
2022-10-23T14:30:13.071Z,7.13
2022-10-23T14:31:17.747Z,7.35
2022-10-23T14:32:19.896Z,7.85
2022-10-23T14:33:22.016Z,9.07
2022-10-23T14:34:24.124Z,7.80
2022-10-23T14:35:26.360Z,7.20
2022-10-23T14:36:38.360Z,7.00
2022-10-23T14:37:51.724Z,7.93
2022-10-23T14:38:58.077Z,6.90
2022-10-23T14:40:01.082Z,6.30
2022-10-23T14:41:16.829Z,6.25
2022-10-23T14:42:20.504Z,5.68
2022-10-23T14:43:24.341Z,5.40
2022-10-23T14:44:29.549Z,5.00
2022-10-23T14:45:32.664Z,5.28
2022-10-23T14:46:35.905Z,5.25
2022-10-23T14:47:41.060Z,4.85
2022-10-23T14:48:47.070Z,5.28
2022-10-23T14:49:53.438Z,5.47
2022-10-23T14:50:58.255Z,5.10
2022-10-23T14:52:00.617Z,5.28
2022-10-23T14:53:03.057Z,6.05
2022-10-23T14:54:06.785Z,5.28
2022-10-23T14:55:09.392Z,5.90
2022-10-23T14:56:11.431Z,6.05
2022-10-23T14:57:16.622Z,5.72
2022-10-23T14:58:18.935Z,5.85
2022-10-23T14:59:20.985Z,6.32
2022-10-23T15:00:24.445Z,5.85